sensor_id;sensor_type;location;lat;lon;timestamp;P1;durP1;ratioP1;P2;durP2;ratioP2
10987;SDS011;5547;42.672;23.230;2022-12-29T00:01:49;113.40;;;60.88;;
10987;SDS011;5547;42.672;23.230;2022-12-29T00:04:50;112.27;;;61.17;;
10987;SDS011;5547;42.672;23.230;2022-12-29T00:07:51;117.30;;;62.17;;
10987;SDS011;5547;42.672;23.230;2022-12-29T00:10:51;111.03;;;61.77;;
10987;SDS011;5547;42.672;23.230;2022-12-29T00:13:52;111.90;;;62.83;;
10987;SDS011;5547;42.672;23.230;2022-12-29T00:17:11;106.97;;;61.33;;
10987;SDS011;5547;42.672;23.230;2022-12-29T00:20:12;107.77;;;61.70;;
10987;SDS011;5547;42.672;23.230;2022-12-29T00:23:39;109.50;;;61.72;;
10987;SDS011;5547;42.672;23.230;2022-12-29T00:26:58;113.72;;;62.15;;
10987;SDS011;5547;42.672;23.230;2022-12-29T00:30:28;108.20;;;62.87;;
10987;SDS011;5547;42.672;23.230;2022-12-29T00:33:47;111.88;;;63.33;;
10987;SDS011;5547;42.672;23.230;2022-12-29T00:37:06;113.55;;;63.95;;
10987;SDS011;5547;42.672;23.230;2022-12-29T00:40:07;111.17;;;63.00;;
10987;SDS011;5547;42.672;23.230;2022-12-29T00:43:26;112.55;;;63.60;;
10987;SDS011;5547;42.672;23.230;2022-12-29T00:46:45;116.30;;;63.20;;
10987;SDS011;5547;42.672;23.230;2022-12-29T00:49:45;110.70;;;61.83;;
10987;SDS011;5547;42.672;23.230;2022-12-29T00:52:45;111.63;;;63.30;;
10987;SDS011;5547;42.672;23.230;2022-12-29T00:55:46;110.70;;;61.77;;
10987;SDS011;5547;42.672;23.230;2022-12-29T00:58:46;113.77;;;61.70;;
10987;SDS011;5547;42.672;23.230;2022-12-29T01:01:47;107.23;;;60.13;;
10987;SDS011;5547;42.672;23.230;2022-12-29T01:04:47;114.32;;;59.97;;
10987;SDS011;5547;42.672;23.230;2022-12-29T01:07:48;108.63;;;59.50;;
10987;SDS011;5547;42.672;23.230;2022-12-29T01:14:21;106.90;;;58.72;;
10987;SDS011;5547;42.672;23.230;2022-12-29T01:17:22;102.90;;;58.60;;
10987;SDS011;5547;42.672;23.230;2022-12-29T01:20:23;106.67;;;58.33;;
10987;SDS011;5547;42.672;23.230;2022-12-29T01:23:23;107.30;;;59.53;;
10987;SDS011;5547;42.672;23.230;2022-12-29T01:26:23;106.83;;;58.27;;
10987;SDS011;5547;42.672;23.230;2022-12-29T01:29:24;107.00;;;58.53;;
10987;SDS011;5547;42.672;23.230;2022-12-29T01:32:24;104.80;;;59.30;;
10987;SDS011;5547;42.672;23.230;2022-12-29T01:35:25;105.57;;;60.00;;
10987;SDS011;5547;42.672;23.230;2022-12-29T01:38:25;106.55;;;60.22;;
10987;SDS011;5547;42.672;23.230;2022-12-29T01:41:26;104.80;;;59.67;;
10987;SDS011;5547;42.672;23.230;2022-12-29T01:47:53;111.25;;;62.30;;
10987;SDS011;5547;42.672;23.230;2022-12-29T01:50:57;106.38;;;61.90;;
10987;SDS011;5547;42.672;23.230;2022-12-29T01:53:58;110.73;;;61.40;;
10987;SDS011;5547;42.672;23.230;2022-12-29T01:57:06;110.03;;;60.67;;
10987;SDS011;5547;42.672;23.230;2022-12-29T02:00:12;113.60;;;62.88;;
10987;SDS011;5547;42.672;23.230;2022-12-29T02:03:14;109.38;;;61.72;;
10987;SDS011;5547;42.672;23.230;2022-12-29T02:06:18;108.00;;;61.35;;
10987;SDS011;5547;42.672;23.230;2022-12-29T02:09:22;112.30;;;62.00;;
10987;SDS011;5547;42.672;23.230;2022-12-29T02:12:23;115.67;;;63.60;;
10987;SDS011;5547;42.672;23.230;2022-12-29T02:15:48;113.10;;;62.83;;
10987;SDS011;5547;42.672;23.230;2022-12-29T02:19:09;109.25;;;63.00;;
10987;SDS011;5547;42.672;23.230;2022-12-29T02:26:22;114.22;;;65.97;;
10987;SDS011;5547;42.672;23.230;2022-12-29T02:29:36;111.97;;;66.17;;
10987;SDS011;5547;42.672;23.230;2022-12-29T02:33:03;119.30;;;68.25;;
10987;SDS011;5547;42.672;23.230;2022-12-29T02:42:34;114.15;;;63.97;;
10987;SDS011;5547;42.672;23.230;2022-12-29T02:49:06;104.80;;;59.57;;
10987;SDS011;5547;42.672;23.230;2022-12-29T02:52:14;102.65;;;59.05;;
10987;SDS011;5547;42.672;23.230;2022-12-29T02:55:18;108.13;;;61.03;;
10987;SDS011;5547;42.672;23.230;2022-12-29T02:58:22;109.80;;;61.27;;
10987;SDS011;5547;42.672;23.230;2022-12-29T03:04:36;108.73;;;60.50;;
10987;SDS011;5547;42.672;23.230;2022-12-29T03:11:32;106.75;;;60.25;;
10987;SDS011;5547;42.672;23.230;2022-12-29T03:15:03;110.05;;;60.03;;
10987;SDS011;5547;42.672;23.230;2022-12-29T03:18:39;102.13;;;58.93;;
10987;SDS011;5547;42.672;23.230;2022-12-29T03:21:44;109.72;;;59.53;;
10987;SDS011;5547;42.672;23.230;2022-12-29T03:28:20;106.70;;;59.60;;
10987;SDS011;5547;42.672;23.230;2022-12-29T03:31:24;106.93;;;58.90;;
10987;SDS011;5547;42.672;23.230;2022-12-29T03:34:25;108.38;;;60.38;;
10987;SDS011;5547;42.672;23.230;2022-12-29T03:37:28;107.45;;;59.67;;
10987;SDS011;5547;42.672;23.230;2022-12-29T03:40:34;109.22;;;60.08;;
10987;SDS011;5547;42.672;23.230;2022-12-29T03:43:36;107.05;;;60.47;;
10987;SDS011;5547;42.672;23.230;2022-12-29T03:46:37;112.80;;;62.72;;
10987;SDS011;5547;42.672;23.230;2022-12-29T03:49:38;114.57;;;63.03;;
10987;SDS011;5547;42.672;23.230;2022-12-29T03:52:38;122.23;;;66.17;;
10987;SDS011;5547;42.672;23.230;2022-12-29T03:55:39;123.13;;;66.25;;
10987;SDS011;5547;42.672;23.230;2022-12-29T03:58:39;132.77;;;71.00;;
10987;SDS011;5547;42.672;23.230;2022-12-29T04:01:40;141.07;;;73.30;;
10987;SDS011;5547;42.672;23.230;2022-12-29T04:04:40;144.63;;;73.43;;
10987;SDS011;5547;42.672;23.230;2022-12-29T04:07:40;153.57;;;76.70;;
10987;SDS011;5547;42.672;23.230;2022-12-29T04:10:41;154.77;;;77.55;;
10987;SDS011;5547;42.672;23.230;2022-12-29T04:13:41;156.63;;;78.35;;
10987;SDS011;5547;42.672;23.230;2022-12-29T04:16:42;149.00;;;75.47;;
10987;SDS011;5547;42.672;23.230;2022-12-29T04:19:42;146.10;;;73.70;;
10987;SDS011;5547;42.672;23.230;2022-12-29T04:22:42;133.93;;;68.67;;
10987;SDS011;5547;42.672;23.230;2022-12-29T04:25:45;138.90;;;70.60;;
10987;SDS011;5547;42.672;23.230;2022-12-29T04:28:47;139.73;;;71.43;;
10987;SDS011;5547;42.672;23.230;2022-12-29T04:31:47;138.83;;;70.80;;
10987;SDS011;5547;42.672;23.230;2022-12-29T04:34:47;138.77;;;68.93;;
10987;SDS011;5547;42.672;23.230;2022-12-29T04:37:48;128.50;;;69.23;;
10987;SDS011;5547;42.672;23.230;2022-12-29T04:40:48;128.37;;;67.43;;
10987;SDS011;5547;42.672;23.230;2022-12-29T04:43:50;123.63;;;66.83;;
10987;SDS011;5547;42.672;23.230;2022-12-29T04:46:50;140.52;;;74.32;;
10987;SDS011;5547;42.672;23.230;2022-12-29T04:49:50;144.52;;;74.85;;
10987;SDS011;5547;42.672;23.230;2022-12-29T04:52:51;143.55;;;75.32;;
10987;SDS011;5547;42.672;23.230;2022-12-29T04:55:51;139.33;;;74.23;;
10987;SDS011;5547;42.672;23.230;2022-12-29T04:58:52;137.23;;;72.63;;
10987;SDS011;5547;42.672;23.230;2022-12-29T05:01:53;132.17;;;70.47;;
10987;SDS011;5547;42.672;23.230;2022-12-29T05:04:53;128.47;;;68.77;;
10987;SDS011;5547;42.672;23.230;2022-12-29T05:07:53;133.20;;;69.53;;
10987;SDS011;5547;42.672;23.230;2022-12-29T05:10:54;140.87;;;73.33;;
10987;SDS011;5547;42.672;23.230;2022-12-29T05:13:54;128.83;;;69.53;;
10987;SDS011;5547;42.672;23.230;2022-12-29T05:16:55;133.37;;;72.17;;
10987;SDS011;5547;42.672;23.230;2022-12-29T05:19:55;127.50;;;70.90;;
10987;SDS011;5547;42.672;23.230;2022-12-29T05:22:56;129.10;;;69.65;;
10987;SDS011;5547;42.672;23.230;2022-12-29T05:25:56;126.68;;;68.50;;
10987;SDS011;5547;42.672;23.230;2022-12-29T05:28:56;122.90;;;67.03;;
10987;SDS011;5547;42.672;23.230;2022-12-29T05:31:57;123.20;;;66.32;;
10987;SDS011;5547;42.672;23.230;2022-12-29T05:34:57;116.90;;;64.07;;
10987;SDS011;5547;42.672;23.230;2022-12-29T05:37:57;115.20;;;64.07;;
10987;SDS011;5547;42.672;23.230;2022-12-29T05:40:58;117.97;;;64.40;;
10987;SDS011;5547;42.672;23.230;2022-12-29T05:43:58;122.77;;;70.70;;
10987;SDS011;5547;42.672;23.230;2022-12-29T05:46:59;117.47;;;63.83;;
10987;SDS011;5547;42.672;23.230;2022-12-29T05:49:59;116.70;;;64.37;;
10987;SDS011;5547;42.672;23.230;2022-12-29T05:52:59;116.40;;;63.77;;
10987;SDS011;5547;42.672;23.230;2022-12-29T05:56:00;119.83;;;65.67;;
10987;SDS011;5547;42.672;23.230;2022-12-29T05:59:00;121.17;;;67.10;;
10987;SDS011;5547;42.672;23.230;2022-12-29T06:02:01;119.70;;;65.20;;
10987;SDS011;5547;42.672;23.230;2022-12-29T06:05:01;111.03;;;62.97;;
10987;SDS011;5547;42.672;23.230;2022-12-29T06:08:02;117.43;;;63.17;;
10987;SDS011;5547;42.672;23.230;2022-12-29T06:11:03;110.85;;;62.63;;
10987;SDS011;5547;42.672;23.230;2022-12-29T06:14:03;108.10;;;61.50;;
10987;SDS011;5547;42.672;23.230;2022-12-29T06:17:03;117.50;;;63.70;;
10987;SDS011;5547;42.672;23.230;2022-12-29T06:20:04;113.37;;;61.27;;
10987;SDS011;5547;42.672;23.230;2022-12-29T06:23:05;115.35;;;60.22;;
10987;SDS011;5547;42.672;23.230;2022-12-29T06:26:05;112.67;;;60.10;;
10987;SDS011;5547;42.672;23.230;2022-12-29T06:29:06;110.53;;;59.30;;
10987;SDS011;5547;42.672;23.230;2022-12-29T06:32:08;110.03;;;57.08;;
10987;SDS011;5547;42.672;23.230;2022-12-29T06:35:09;101.10;;;55.42;;
10987;SDS011;5547;42.672;23.230;2022-12-29T06:38:10;102.03;;;56.35;;
10987;SDS011;5547;42.672;23.230;2022-12-29T06:41:10;104.00;;;56.25;;
10987;SDS011;5547;42.672;23.230;2022-12-29T06:44:11;102.30;;;56.17;;
10987;SDS011;5547;42.672;23.230;2022-12-29T06:47:11;103.67;;;55.23;;
10987;SDS011;5547;42.672;23.230;2022-12-29T06:50:11;103.87;;;55.10;;
10987;SDS011;5547;42.672;23.230;2022-12-29T06:53:12;103.57;;;55.03;;
10987;SDS011;5547;42.672;23.230;2022-12-29T06:56:12;108.20;;;55.90;;
10987;SDS011;5547;42.672;23.230;2022-12-29T06:59:13;97.33;;;54.23;;
10987;SDS011;5547;42.672;23.230;2022-12-29T07:02:13;95.27;;;53.80;;
10987;SDS011;5547;42.672;23.230;2022-12-29T07:05:14;101.10;;;56.65;;
10987;SDS011;5547;42.672;23.230;2022-12-29T07:08:15;104.73;;;57.10;;
10987;SDS011;5547;42.672;23.230;2022-12-29T07:11:15;109.97;;;56.47;;
10987;SDS011;5547;42.672;23.230;2022-12-29T07:14:15;109.57;;;59.13;;
10987;SDS011;5547;42.672;23.230;2022-12-29T07:17:16;103.73;;;55.37;;
10987;SDS011;5547;42.672;23.230;2022-12-29T07:20:16;100.53;;;54.47;;
10987;SDS011;5547;42.672;23.230;2022-12-29T07:23:17;102.00;;;56.00;;
10987;SDS011;5547;42.672;23.230;2022-12-29T07:26:17;105.63;;;56.83;;
10987;SDS011;5547;42.672;23.230;2022-12-29T07:29:18;102.03;;;55.80;;
10987;SDS011;5547;42.672;23.230;2022-12-29T07:32:18;96.67;;;53.43;;
10987;SDS011;5547;42.672;23.230;2022-12-29T07:35:19;96.50;;;54.63;;
10987;SDS011;5547;42.672;23.230;2022-12-29T07:38:19;97.20;;;54.43;;
10987;SDS011;5547;42.672;23.230;2022-12-29T07:41:20;101.72;;;55.42;;
10987;SDS011;5547;42.672;23.230;2022-12-29T07:44:20;106.17;;;58.40;;
10987;SDS011;5547;42.672;23.230;2022-12-29T07:47:20;105.13;;;55.77;;
10987;SDS011;5547;42.672;23.230;2022-12-29T07:50:21;99.37;;;54.03;;
10987;SDS011;5547;42.672;23.230;2022-12-29T07:53:21;101.20;;;55.83;;
10987;SDS011;5547;42.672;23.230;2022-12-29T07:56:22;99.13;;;56.17;;
10987;SDS011;5547;42.672;23.230;2022-12-29T07:59:22;95.68;;;54.47;;
10987;SDS011;5547;42.672;23.230;2022-12-29T08:02:23;95.85;;;54.13;;
10987;SDS011;5547;42.672;23.230;2022-12-29T08:05:23;98.47;;;55.17;;
10987;SDS011;5547;42.672;23.230;2022-12-29T08:08:24;97.80;;;53.93;;
10987;SDS011;5547;42.672;23.230;2022-12-29T08:11:24;98.43;;;54.50;;
10987;SDS011;5547;42.672;23.230;2022-12-29T08:14:25;101.83;;;54.13;;
10987;SDS011;5547;42.672;23.230;2022-12-29T08:17:25;103.10;;;55.97;;
10987;SDS011;5547;42.672;23.230;2022-12-29T08:20:25;95.43;;;52.40;;
10987;SDS011;5547;42.672;23.230;2022-12-29T08:23:26;94.30;;;52.67;;
10987;SDS011;5547;42.672;23.230;2022-12-29T08:26:26;101.73;;;54.60;;
10987;SDS011;5547;42.672;23.230;2022-12-29T08:29:27;99.23;;;55.17;;
10987;SDS011;5547;42.672;23.230;2022-12-29T08:32:28;95.57;;;53.60;;
10987;SDS011;5547;42.672;23.230;2022-12-29T08:35:28;97.05;;;54.08;;
10987;SDS011;5547;42.672;23.230;2022-12-29T08:38:28;113.82;;;60.60;;
10987;SDS011;5547;42.672;23.230;2022-12-29T08:41:29;116.15;;;67.22;;
10987;SDS011;5547;42.672;23.230;2022-12-29T08:44:30;103.13;;;54.70;;
10987;SDS011;5547;42.672;23.230;2022-12-29T08:47:30;103.27;;;55.47;;
10987;SDS011;5547;42.672;23.230;2022-12-29T08:50:30;98.13;;;54.70;;
10987;SDS011;5547;42.672;23.230;2022-12-29T08:53:31;96.70;;;57.10;;
10987;SDS011;5547;42.672;23.230;2022-12-29T08:56:31;96.23;;;52.90;;
10987;SDS011;5547;42.672;23.230;2022-12-29T08:59:32;93.07;;;51.50;;
10987;SDS011;5547;42.672;23.230;2022-12-29T09:02:32;94.27;;;52.97;;
10987;SDS011;5547;42.672;23.230;2022-12-29T09:05:32;93.40;;;48.67;;
10987;SDS011;5547;42.672;23.230;2022-12-29T09:08:33;103.17;;;52.53;;
10987;SDS011;5547;42.672;23.230;2022-12-29T09:11:33;98.37;;;52.00;;
10987;SDS011;5547;42.672;23.230;2022-12-29T09:14:34;95.90;;;51.50;;
10987;SDS011;5547;42.672;23.230;2022-12-29T09:17:34;100.67;;;54.23;;
10987;SDS011;5547;42.672;23.230;2022-12-29T09:20:44;107.45;;;51.72;;
10987;SDS011;5547;42.672;23.230;2022-12-29T09:23:44;96.83;;;51.17;;
10987;SDS011;5547;42.672;23.230;2022-12-29T09:26:45;99.40;;;52.10;;
10987;SDS011;5547;42.672;23.230;2022-12-29T09:29:45;96.83;;;52.53;;
10987;SDS011;5547;42.672;23.230;2022-12-29T09:32:46;95.93;;;52.50;;
10987;SDS011;5547;42.672;23.230;2022-12-29T09:35:51;95.85;;;51.55;;
10987;SDS011;5547;42.672;23.230;2022-12-29T09:38:53;95.68;;;50.80;;
10987;SDS011;5547;42.672;23.230;2022-12-29T09:45:16;100.88;;;54.45;;
10987;SDS011;5547;42.672;23.230;2022-12-29T09:48:23;97.35;;;52.63;;
10987;SDS011;5547;42.672;23.230;2022-12-29T09:51:31;100.83;;;52.80;;
10987;SDS011;5547;42.672;23.230;2022-12-29T09:57:45;104.53;;;54.90;;
10987;SDS011;5547;42.672;23.230;2022-12-29T10:04:02;95.43;;;50.95;;
10987;SDS011;5547;42.672;23.230;2022-12-29T10:10:38;97.72;;;50.78;;
10987;SDS011;5547;42.672;23.230;2022-12-29T10:23:26;100.95;;;55.72;;
10987;SDS011;5547;42.672;23.230;2022-12-29T10:26:31;99.97;;;54.28;;
10987;SDS011;5547;42.672;23.230;2022-12-29T10:29:38;99.82;;;53.08;;
10987;SDS011;5547;42.672;23.230;2022-12-29T10:35:49;107.90;;;55.30;;
10987;SDS011;5547;42.672;23.230;2022-12-29T10:38:58;102.88;;;53.17;;
10987;SDS011;5547;42.672;23.230;2022-12-29T10:42:09;101.93;;;54.33;;
10987;SDS011;5547;42.672;23.230;2022-12-29T10:45:15;104.90;;;53.85;;
10987;SDS011;5547;42.672;23.230;2022-12-29T10:48:22;109.23;;;54.33;;
10987;SDS011;5547;42.672;23.230;2022-12-29T10:51:34;108.70;;;56.70;;
10987;SDS011;5547;42.672;23.230;2022-12-29T10:55:25;118.20;;;61.58;;
10987;SDS011;5547;42.672;23.230;2022-12-29T10:58:13;106.40;;;53.55;;
10987;SDS011;5547;42.672;23.230;2022-12-29T11:01:15;106.28;;;54.22;;
10987;SDS011;5547;42.672;23.230;2022-12-29T11:04:59;106.72;;;54.25;;
10987;SDS011;5547;42.672;23.230;2022-12-29T11:07:55;114.20;;;55.30;;
10987;SDS011;5547;42.672;23.230;2022-12-29T11:11:03;120.32;;;57.60;;
10987;SDS011;5547;42.672;23.230;2022-12-29T11:14:10;111.18;;;57.38;;
10987;SDS011;5547;42.672;23.230;2022-12-29T11:17:14;106.75;;;53.95;;
10987;SDS011;5547;42.672;23.230;2022-12-29T11:20:33;111.53;;;55.58;;
10987;SDS011;5547;42.672;23.230;2022-12-29T11:23:39;112.07;;;54.67;;
10987;SDS011;5547;42.672;23.230;2022-12-29T11:26:43;113.07;;;54.93;;
10987;SDS011;5547;42.672;23.230;2022-12-29T11:29:45;106.70;;;54.30;;
10987;SDS011;5547;42.672;23.230;2022-12-29T11:32:51;109.83;;;54.43;;
10987;SDS011;5547;42.672;23.230;2022-12-29T11:35:56;148.40;;;75.68;;
10987;SDS011;5547;42.672;23.230;2022-12-29T11:42:41;169.45;;;90.35;;
10987;SDS011;5547;42.672;23.230;2022-12-29T11:45:56;119.38;;;59.83;;
10987;SDS011;5547;42.672;23.230;2022-12-29T11:48:57;110.90;;;56.60;;
10987;SDS011;5547;42.672;23.230;2022-12-29T11:51:59;114.93;;;58.33;;
10987;SDS011;5547;42.672;23.230;2022-12-29T11:55:01;112.60;;;56.73;;
10987;SDS011;5547;42.672;23.230;2022-12-29T11:58:04;113.30;;;57.10;;
10987;SDS011;5547;42.672;23.230;2022-12-29T12:04:45;120.97;;;60.70;;
10987;SDS011;5547;42.672;23.230;2022-12-29T12:07:59;125.57;;;65.45;;
10987;SDS011;5547;42.672;23.230;2022-12-29T12:11:11;126.63;;;66.15;;
10987;SDS011;5547;42.672;23.230;2022-12-29T12:14:17;126.57;;;64.90;;
10987;SDS011;5547;42.672;23.230;2022-12-29T12:17:23;122.80;;;63.72;;
10987;SDS011;5547;42.672;23.230;2022-12-29T12:20:56;127.93;;;65.32;;
10987;SDS011;5547;42.672;23.230;2022-12-29T12:27:39;133.02;;;63.97;;
10987;SDS011;5547;42.672;23.230;2022-12-29T12:30:49;128.75;;;63.90;;
10987;SDS011;5547;42.672;23.230;2022-12-29T12:33:57;125.88;;;63.63;;
10987;SDS011;5547;42.672;23.230;2022-12-29T12:47:50;122.40;;;60.55;;
10987;SDS011;5547;42.672;23.230;2022-12-29T12:57:14;127.95;;;62.10;;
10987;SDS011;5547;42.672;23.230;2022-12-29T13:00:33;121.47;;;60.38;;
10987;SDS011;5547;42.672;23.230;2022-12-29T13:17:16;124.07;;;60.07;;
10987;SDS011;5547;42.672;23.230;2022-12-29T13:20:46;128.27;;;59.97;;
10987;SDS011;5547;42.672;23.230;2022-12-29T13:24:02;121.20;;;59.78;;
10987;SDS011;5547;42.672;23.230;2022-12-29T13:27:18;122.73;;;59.80;;
10987;SDS011;5547;42.672;23.230;2022-12-29T13:30:22;133.10;;;64.35;;
10987;SDS011;5547;42.672;23.230;2022-12-29T13:33:33;129.43;;;64.22;;
10987;SDS011;5547;42.672;23.230;2022-12-29T13:36:51;132.77;;;64.80;;
10987;SDS011;5547;42.672;23.230;2022-12-29T13:40:02;130.82;;;63.00;;
10987;SDS011;5547;42.672;23.230;2022-12-29T13:43:10;129.35;;;63.20;;
10987;SDS011;5547;42.672;23.230;2022-12-29T13:46:15;132.23;;;64.45;;
10987;SDS011;5547;42.672;23.230;2022-12-29T13:49:22;125.60;;;63.50;;
10987;SDS011;5547;42.672;23.230;2022-12-29T13:55:39;137.32;;;65.35;;
10987;SDS011;5547;42.672;23.230;2022-12-29T14:02:15;135.43;;;66.15;;
10987;SDS011;5547;42.672;23.230;2022-12-29T14:08:17;141.70;;;67.73;;
10987;SDS011;5547;42.672;23.230;2022-12-29T14:11:20;139.65;;;69.28;;
10987;SDS011;5547;42.672;23.230;2022-12-29T14:14:28;131.87;;;66.83;;
10987;SDS011;5547;42.672;23.230;2022-12-29T14:17:30;137.23;;;67.47;;
10987;SDS011;5547;42.672;23.230;2022-12-29T14:20:30;118.57;;;58.58;;
10987;SDS011;5547;42.672;23.230;2022-12-29T14:26:40;149.75;;;73.53;;
10987;SDS011;5547;42.672;23.230;2022-12-29T14:32:41;124.13;;;58.73;;
10987;SDS011;5547;42.672;23.230;2022-12-29T14:36:51;118.15;;;57.10;;
10987;SDS011;5547;42.672;23.230;2022-12-29T14:39:42;119.85;;;57.55;;
10987;SDS011;5547;42.672;23.230;2022-12-29T14:42:45;127.13;;;61.55;;
10987;SDS011;5547;42.672;23.230;2022-12-29T14:46:20;125.53;;;60.33;;
10987;SDS011;5547;42.672;23.230;2022-12-29T14:49:15;125.32;;;60.85;;
10987;SDS011;5547;42.672;23.230;2022-12-29T14:52:20;124.20;;;61.42;;
10987;SDS011;5547;42.672;23.230;2022-12-29T14:58:46;129.30;;;61.28;;
10987;SDS011;5547;42.672;23.230;2022-12-29T15:01:51;137.52;;;69.07;;
10987;SDS011;5547;42.672;23.230;2022-12-29T15:04:54;122.45;;;63.00;;
10987;SDS011;5547;42.672;23.230;2022-12-29T15:08:00;133.82;;;64.60;;
10987;SDS011;5547;42.672;23.230;2022-12-29T15:11:19;132.18;;;65.18;;
10987;SDS011;5547;42.672;23.230;2022-12-29T15:17:31;147.57;;;70.88;;
10987;SDS011;5547;42.672;23.230;2022-12-29T15:20:34;154.40;;;74.40;;
10987;SDS011;5547;42.672;23.230;2022-12-29T15:23:34;143.43;;;68.47;;
10987;SDS011;5547;42.672;23.230;2022-12-29T15:26:41;138.80;;;67.55;;
10987;SDS011;5547;42.672;23.230;2022-12-29T15:29:44;134.98;;;67.82;;
10987;SDS011;5547;42.672;23.230;2022-12-29T15:32:47;142.82;;;69.88;;
10987;SDS011;5547;42.672;23.230;2022-12-29T15:35:52;142.07;;;71.90;;
10987;SDS011;5547;42.672;23.230;2022-12-29T15:38:54;144.40;;;73.50;;
10987;SDS011;5547;42.672;23.230;2022-12-29T15:41:58;154.13;;;79.28;;
10987;SDS011;5547;42.672;23.230;2022-12-29T15:45:08;153.80;;;79.43;;
10987;SDS011;5547;42.672;23.230;2022-12-29T15:48:23;151.02;;;78.03;;
10987;SDS011;5547;42.672;23.230;2022-12-29T15:51:28;145.53;;;75.70;;
10987;SDS011;5547;42.672;23.230;2022-12-29T15:54:30;146.05;;;74.75;;
10987;SDS011;5547;42.672;23.230;2022-12-29T15:57:41;145.07;;;74.80;;
10987;SDS011;5547;42.672;23.230;2022-12-29T16:00:45;134.70;;;67.75;;
10987;SDS011;5547;42.672;23.230;2022-12-29T16:03:48;139.13;;;67.72;;
10987;SDS011;5547;42.672;23.230;2022-12-29T16:06:58;136.20;;;66.07;;
10987;SDS011;5547;42.672;23.230;2022-12-29T16:10:00;136.18;;;67.68;;
10987;SDS011;5547;42.672;23.230;2022-12-29T16:13:22;131.32;;;65.03;;
10987;SDS011;5547;42.672;23.230;2022-12-29T16:16:39;137.98;;;66.55;;
10987;SDS011;5547;42.672;23.230;2022-12-29T16:19:41;134.32;;;65.55;;
10987;SDS011;5547;42.672;23.230;2022-12-29T16:22:49;140.43;;;68.40;;
10987;SDS011;5547;42.672;23.230;2022-12-29T16:25:52;137.23;;;66.75;;
10987;SDS011;5547;42.672;23.230;2022-12-29T16:28:55;130.20;;;62.67;;
10987;SDS011;5547;42.672;23.230;2022-12-29T16:31:58;129.55;;;62.92;;
10987;SDS011;5547;42.672;23.230;2022-12-29T16:38:14;129.27;;;66.25;;
10987;SDS011;5547;42.672;23.230;2022-12-29T16:41:28;129.95;;;67.53;;
10987;SDS011;5547;42.672;23.230;2022-12-29T16:44:30;133.20;;;69.82;;
10987;SDS011;5547;42.672;23.230;2022-12-29T16:47:31;127.57;;;63.83;;
10987;SDS011;5547;42.672;23.230;2022-12-29T16:50:32;127.07;;;62.17;;
10987;SDS011;5547;42.672;23.230;2022-12-29T16:53:35;127.47;;;61.47;;
10987;SDS011;5547;42.672;23.230;2022-12-29T16:56:37;130.23;;;63.05;;
10987;SDS011;5547;42.672;23.230;2022-12-29T16:59:44;124.60;;;61.72;;
10987;SDS011;5547;42.672;23.230;2022-12-29T17:02:45;154.43;;;78.60;;
10987;SDS011;5547;42.672;23.230;2022-12-29T17:05:46;126.53;;;64.20;;
10987;SDS011;5547;42.672;23.230;2022-12-29T17:08:48;129.13;;;62.50;;
10987;SDS011;5547;42.672;23.230;2022-12-29T17:11:54;134.70;;;64.65;;
10987;SDS011;5547;42.672;23.230;2022-12-29T17:14:58;132.60;;;64.88;;
10987;SDS011;5547;42.672;23.230;2022-12-29T17:17:59;142.18;;;70.78;;
10987;SDS011;5547;42.672;23.230;2022-12-29T17:21:00;139.27;;;69.97;;
10987;SDS011;5547;42.672;23.230;2022-12-29T17:24:01;136.45;;;67.47;;
10987;SDS011;5547;42.672;23.230;2022-12-29T17:27:01;128.80;;;65.63;;
10987;SDS011;5547;42.672;23.230;2022-12-29T17:30:04;125.32;;;64.60;;
10987;SDS011;5547;42.672;23.230;2022-12-29T17:33:14;134.02;;;65.53;;
10987;SDS011;5547;42.672;23.230;2022-12-29T17:36:16;128.07;;;64.30;;
10987;SDS011;5547;42.672;23.230;2022-12-29T17:39:17;125.33;;;64.47;;
10987;SDS011;5547;42.672;23.230;2022-12-29T17:42:18;132.40;;;66.87;;
10987;SDS011;5547;42.672;23.230;2022-12-29T17:45:19;132.73;;;67.15;;
10987;SDS011;5547;42.672;23.230;2022-12-29T17:48:23;130.48;;;66.47;;
10987;SDS011;5547;42.672;23.230;2022-12-29T17:51:24;136.03;;;67.17;;
10987;SDS011;5547;42.672;23.230;2022-12-29T17:54:25;129.73;;;67.53;;
10987;SDS011;5547;42.672;23.230;2022-12-29T17:57:25;126.20;;;65.93;;
10987;SDS011;5547;42.672;23.230;2022-12-29T18:00:27;129.40;;;68.70;;
10987;SDS011;5547;42.672;23.230;2022-12-29T18:03:33;131.30;;;70.22;;
10987;SDS011;5547;42.672;23.230;2022-12-29T18:06:35;131.30;;;67.57;;
10987;SDS011;5547;42.672;23.230;2022-12-29T18:09:35;128.23;;;64.50;;
10987;SDS011;5547;42.672;23.230;2022-12-29T18:12:37;129.33;;;67.27;;
10987;SDS011;5547;42.672;23.230;2022-12-29T18:15:39;146.60;;;82.97;;
10987;SDS011;5547;42.672;23.230;2022-12-29T18:18:39;146.30;;;80.20;;
10987;SDS011;5547;42.672;23.230;2022-12-29T18:21:40;144.23;;;78.93;;
10987;SDS011;5547;42.672;23.230;2022-12-29T18:24:42;139.43;;;70.05;;
10987;SDS011;5547;42.672;23.230;2022-12-29T18:27:43;136.43;;;69.83;;
10987;SDS011;5547;42.672;23.230;2022-12-29T18:30:43;140.47;;;71.73;;
10987;SDS011;5547;42.672;23.230;2022-12-29T18:33:44;140.05;;;73.82;;
10987;SDS011;5547;42.672;23.230;2022-12-29T18:36:45;138.95;;;70.60;;
10987;SDS011;5547;42.672;23.230;2022-12-29T18:39:46;139.98;;;73.20;;
10987;SDS011;5547;42.672;23.230;2022-12-29T18:42:46;138.85;;;70.30;;
10987;SDS011;5547;42.672;23.230;2022-12-29T18:45:47;133.10;;;70.68;;
10987;SDS011;5547;42.672;23.230;2022-12-29T18:48:48;128.88;;;68.50;;
10987;SDS011;5547;42.672;23.230;2022-12-29T18:51:48;126.33;;;64.60;;
10987;SDS011;5547;42.672;23.230;2022-12-29T18:54:48;128.70;;;66.60;;
10987;SDS011;5547;42.672;23.230;2022-12-29T18:57:49;126.87;;;64.50;;
10987;SDS011;5547;42.672;23.230;2022-12-29T19:00:50;125.13;;;63.53;;
10987;SDS011;5547;42.672;23.230;2022-12-29T19:03:51;131.43;;;64.97;;
10987;SDS011;5547;42.672;23.230;2022-12-29T19:06:51;127.43;;;63.67;;
10987;SDS011;5547;42.672;23.230;2022-12-29T19:09:51;131.50;;;64.27;;
10987;SDS011;5547;42.672;23.230;2022-12-29T19:12:52;129.45;;;66.97;;
10987;SDS011;5547;42.672;23.230;2022-12-29T19:15:54;129.63;;;66.25;;
10987;SDS011;5547;42.672;23.230;2022-12-29T19:18:56;129.95;;;65.97;;
10987;SDS011;5547;42.672;23.230;2022-12-29T19:21:58;129.63;;;66.63;;
10987;SDS011;5547;42.672;23.230;2022-12-29T19:24:58;132.23;;;68.37;;
10987;SDS011;5547;42.672;23.230;2022-12-29T19:28:00;132.93;;;70.53;;
10987;SDS011;5547;42.672;23.230;2022-12-29T19:31:01;137.88;;;73.38;;
10987;SDS011;5547;42.672;23.230;2022-12-29T19:34:01;131.60;;;70.70;;
10987;SDS011;5547;42.672;23.230;2022-12-29T19:37:02;263.57;;;118.20;;
10987;SDS011;5547;42.672;23.230;2022-12-29T19:40:03;188.82;;;94.30;;
10987;SDS011;5547;42.672;23.230;2022-12-29T19:43:04;185.88;;;94.50;;
10987;SDS011;5547;42.672;23.230;2022-12-29T19:46:09;152.25;;;79.00;;
10987;SDS011;5547;42.672;23.230;2022-12-29T19:49:14;151.05;;;79.03;;